Terminal Aerodrome Forecast
Issued by NWS

Home | Current Version | Previous Version | Text Only | Print | Product List | Glossary On
Versions: 1 2 3 4 5 6 7 8 9 10 11 12 13 14 15 16 17 18 19 20 21 22 23 24 25 26 27
000
FTUS45 KSLC 220523
TAFENV
TAF
KENV 220523Z 2206/2306 34008KT P6SM VCSH SCT025 BKN040 OVC100
      TEMPO 2206/2210 18003KT P6SM -SHRA OVC015
     FM221000 34005KT 6SM -SHRA SCT020 BKN025 OVC040
     FM221600 29010KT P6SM VCSH SCT025 BKN035 OVC060
     FM230000 28008KT P6SM SCT050 BKN080=

USA.gov is the U.S. government's official web portal to all federal, state and local government web resources and services.